createdAt,value
2018-11-28T00:02:19.290Z,1.10
2018-11-28T00:04:50.785Z,1.20
2018-11-28T00:07:22.419Z,1.30
2018-11-28T00:09:54.001Z,1.30
2018-11-28T00:12:25.623Z,1.30
2018-11-28T00:14:57.100Z,1.20
2018-11-28T00:17:28.791Z,1.10
2018-11-28T00:20:00.300Z,1.10
2018-11-28T00:22:31.734Z,1.10
2018-11-28T00:25:03.312Z,1.10
2018-11-28T00:27:34.955Z,1.10
2018-11-28T00:30:11.019Z,1.20
2018-11-28T00:32:42.688Z,1.30
2018-11-28T00:35:18.482Z,1.40
2018-11-28T00:37:49.948Z,1.50
2018-11-28T00:40:22.860Z,1.60
2018-11-28T00:42:54.315Z,1.60
2018-11-28T00:45:26.515Z,1.70
2018-11-28T00:47:58.112Z,1.60
2018-11-28T00:50:30.007Z,1.60
2018-11-28T00:53:01.545Z,1.40
2018-11-28T00:55:33.118Z,1.30
2018-11-28T00:58:04.809Z,1.30
2018-11-28T01:00:36.528Z,1.20
2018-11-28T01:03:08.171Z,1.10
2018-11-28T01:05:39.648Z,1.20
2018-11-28T01:08:11.355Z,1.30
2018-11-28T01:10:43.014Z,1.40
2018-11-28T01:13:14.587Z,1.40
2018-11-28T01:15:46.195Z,1.40
2018-11-28T01:18:17.706Z,1.30
2018-11-28T01:20:49.232Z,1.20
2018-11-28T01:23:20.726Z,1.20
2018-11-28T01:25:52.574Z,1.10
2018-11-28T01:28:24.131Z,1.10
2018-11-28T01:30:55.551Z,1.10
2018-11-28T01:33:27.142Z,1.00
2018-11-28T01:35:58.789Z,1.00
2018-11-28T01:38:30.455Z,1.00
2018-11-28T01:41:02.099Z,0.90
2018-11-28T01:43:33.569Z,1.00
2018-11-28T01:46:05.245Z,1.00
2018-11-28T01:48:36.844Z,0.90
2018-11-28T01:51:08.931Z,0.90
2018-11-28T01:53:40.527Z,0.90
2018-11-28T01:56:12.047Z,0.90
2018-11-28T01:58:43.741Z,0.80
2018-11-28T02:01:15.255Z,0.80
2018-11-28T02:03:46.976Z,0.80
2018-11-28T02:06:18.460Z,0.80
2018-11-28T02:08:50.156Z,0.80
2018-11-28T02:11:21.671Z,0.80
2018-11-28T02:13:53.162Z,0.80
2018-11-28T02:16:24.683Z,0.80
2018-11-28T02:18:56.479Z,0.90
2018-11-28T02:21:27.996Z,0.90
2018-11-28T02:23:59.640Z,1.00
2018-11-28T02:26:31.208Z,1.00
2018-11-28T02:29:02.891Z,1.10
2018-11-28T02:31:34.418Z,1.20
2018-11-28T02:34:06.155Z,1.30
2018-11-28T02:36:37.793Z,1.30
2018-11-28T02:39:11.962Z,1.40
2018-11-28T02:41:43.491Z,1.40
2018-11-28T02:44:15.097Z,1.50
2018-11-28T02:46:46.566Z,1.40
2018-11-28T02:49:18.150Z,1.40
2018-11-28T02:51:49.679Z,1.50
2018-11-28T02:54:21.268Z,1.40
2018-11-28T02:56:52.888Z,1.40
2018-11-28T02:59:24.470Z,1.30
2018-11-28T03:01:55.890Z,1.20
2018-11-28T03:04:27.482Z,1.20
2018-11-28T03:06:59.018Z,1.10
2018-11-28T03:09:30.624Z,1.00
2018-11-28T03:12:02.282Z,0.90
2018-11-28T03:14:33.964Z,0.80
2018-11-28T03:17:05.777Z,0.80
2018-11-28T03:19:37.560Z,0.70
2018-11-28T03:22:09.087Z,0.60
2018-11-28T03:24:40.724Z,0.60
2018-11-28T03:27:12.180Z,0.60
2018-11-28T03:29:43.593Z,0.60
2018-11-28T03:32:15.176Z,0.70
2018-11-28T03:34:46.603Z,0.70
2018-11-28T03:37:18.288Z,0.70
2018-11-28T03:39:49.816Z,0.80
2018-11-28T03:42:22.835Z,0.90
2018-11-28T03:44:54.467Z,0.90
2018-11-28T03:47:26.132Z,1.00
2018-11-28T03:49:57.848Z,1.00
2018-11-28T03:52:29.365Z,1.00
2018-11-28T03:55:01.118Z,1.00
2018-11-28T03:57:32.564Z,0.90
2018-11-28T04:00:04.364Z,0.90
2018-11-28T04:02:35.896Z,0.90
2018-11-28T04:05:07.812Z,1.00
2018-11-28T04:07:39.286Z,0.90
2018-11-28T04:10:13.919Z,1.00
2018-11-28T04:12:46.020Z,1.00
2018-11-28T04:15:19.728Z,1.00
2018-11-28T04:17:51.255Z,1.10
2018-11-28T04:20:24.386Z,1.10
2018-11-28T04:22:55.895Z,1.10
2018-11-28T04:25:27.590Z,1.20
2018-11-28T04:27:59.212Z,1.20
2018-11-28T04:30:30.825Z,1.20
2018-11-28T04:33:02.484Z,1.20
2018-11-28T04:35:34.012Z,1.20
2018-11-28T04:38:05.655Z,1.20
2018-11-28T04:40:37.191Z,1.20
2018-11-28T04:43:08.824Z,1.20
2018-11-28T04:45:40.446Z,1.20
2018-11-28T04:48:12.028Z,1.20
2018-11-28T04:50:43.518Z,1.20
2018-11-28T04:53:15.154Z,1.20
2018-11-28T04:55:46.629Z,1.20
2018-11-28T04:58:18.259Z,1.20
2018-11-28T05:00:49.675Z,1.10
2018-11-28T05:03:21.254Z,1.10
2018-11-28T05:05:52.739Z,1.20
2018-11-28T05:08:24.368Z,1.10
2018-11-28T05:10:55.923Z,1.10
2018-11-28T05:13:27.591Z,1.00
2018-11-28T05:15:59.107Z,1.00
2018-11-28T05:18:30.591Z,0.90
2018-11-28T05:21:02.126Z,0.90
2018-11-28T05:23:33.797Z,0.90
2018-11-28T05:26:05.376Z,0.90
2018-11-28T05:28:36.999Z,0.90
2018-11-28T05:31:09.064Z,0.90
2018-11-28T05:33:40.590Z,0.90
2018-11-28T05:36:12.188Z,0.90
2018-11-28T05:38:43.912Z,0.90
2018-11-28T05:41:15.390Z,0.90
2018-11-28T05:43:46.983Z,1.00
2018-11-28T05:46:18.503Z,1.00
2018-11-28T05:48:50.161Z,1.00
2018-11-28T05:51:21.713Z,1.00
2018-11-28T05:53:53.399Z,1.00
2018-11-28T05:56:25.033Z,1.10
2018-11-28T05:58:56.714Z,1.20
2018-11-28T06:01:28.252Z,1.20
2018-11-28T06:03:59.958Z,1.20
2018-11-28T06:06:31.519Z,1.30
2018-11-28T06:09:03.359Z,1.30
2018-11-28T06:11:35.001Z,1.30
2018-11-28T06:14:07.154Z,1.30
2018-11-28T06:16:39.562Z,1.30
2018-11-28T06:19:11.055Z,1.30
2018-11-28T06:21:42.708Z,1.30
2018-11-28T06:24:14.784Z,1.30
2018-11-28T06:26:46.320Z,1.30
2018-11-28T06:29:17.884Z,1.30
2018-11-28T06:31:49.430Z,1.20
2018-11-28T06:34:20.888Z,1.20
2018-11-28T06:36:52.441Z,1.20
2018-11-28T06:39:24.003Z,1.10
2018-11-28T06:41:55.696Z,1.10
2018-11-28T06:44:27.331Z,1.10
2018-11-28T06:46:58.955Z,1.10
2018-11-28T06:49:30.393Z,1.10
2018-11-28T06:52:02.072Z,1.10
2018-11-28T06:54:33.527Z,1.10
2018-11-28T06:57:05.116Z,1.10
2018-11-28T06:59:36.636Z,1.10
2018-11-28T07:02:08.565Z,1.10
2018-11-28T07:04:40.191Z,1.10
2018-11-28T07:07:11.804Z,1.10
2018-11-28T07:09:43.339Z,1.10
2018-11-28T07:12:14.904Z,1.10
2018-11-28T07:14:46.516Z,1.10
2018-11-28T07:17:18.023Z,1.10
2018-11-28T07:19:49.724Z,1.20
2018-11-28T07:22:21.236Z,1.20
2018-11-28T07:24:52.659Z,1.30
2018-11-28T07:27:24.230Z,1.30
2018-11-28T07:29:55.749Z,1.40
2018-11-28T07:32:27.342Z,1.40
2018-11-28T07:34:58.769Z,1.50
2018-11-28T07:37:30.388Z,1.60
2018-11-28T07:40:02.160Z,1.60
2018-11-28T07:42:33.680Z,1.80
2018-11-28T07:45:05.599Z,1.80
2018-11-28T07:47:37.163Z,2.00
2018-11-28T07:50:10.124Z,2.10
2018-11-28T07:52:41.755Z,2.40
2018-11-28T07:55:13.840Z,2.60
2018-11-28T07:57:45.361Z,2.60
2018-11-28T08:00:17.621Z,2.70
2018-11-28T08:02:49.136Z,2.80
2018-11-28T08:05:20.764Z,2.80
2018-11-28T08:07:52.259Z,3.00
2018-11-28T08:10:27.389Z,3.10
2018-11-28T08:12:59.768Z,4.50
2018-11-28T08:15:31.327Z,6.80
2018-11-28T08:18:02.892Z,8.40
2018-11-28T08:20:34.450Z,9.50
2018-11-28T08:23:06.368Z,10.90
2018-11-28T08:25:37.880Z,12.10
2018-11-28T08:28:09.525Z,13.20
2018-11-28T08:30:41.088Z,13.80
2018-11-28T08:33:12.740Z,13.90
2018-11-28T08:35:44.306Z,14.40
2018-11-28T08:38:15.983Z,15.00
2018-11-28T08:40:47.606Z,15.00
2018-11-28T08:43:19.300Z,14.70
2018-11-28T08:45:50.825Z,14.20
2018-11-28T08:48:22.461Z,13.70
2018-11-28T08:50:53.926Z,13.40
2018-11-28T08:53:25.599Z,12.70
2018-11-28T08:55:57.268Z,11.40
2018-11-28T08:58:28.923Z,8.90
2018-11-28T09:01:00.452Z,6.70
2018-11-28T09:03:32.035Z,5.10
2018-11-28T09:06:03.667Z,4.10
2018-11-28T09:08:35.304Z,3.70
2018-11-28T09:11:07.405Z,3.40
2018-11-28T09:13:38.928Z,3.40
2018-11-28T09:16:10.685Z,3.30
2018-11-28T09:18:42.135Z,3.20
2018-11-28T09:21:13.651Z,3.20
2018-11-28T09:23:45.231Z,3.30
2018-11-28T09:26:19.370Z,3.20
2018-11-28T09:28:51.049Z,3.30
2018-11-28T09:31:22.686Z,3.30
2018-11-28T09:33:54.262Z,3.40
2018-11-28T09:36:25.783Z,3.50
2018-11-28T09:38:57.535Z,3.50
2018-11-28T09:41:28.987Z,3.60
2018-11-28T09:44:00.494Z,3.60
2018-11-28T09:46:32.116Z,3.60
2018-11-28T09:49:03.791Z,3.50
2018-11-28T09:51:35.316Z,3.50
2018-11-28T09:54:07.498Z,3.50
2018-11-28T09:56:39.133Z,3.50
2018-11-28T09:59:10.592Z,3.50
2018-11-28T10:01:42.442Z,3.60
2018-11-28T10:04:14.112Z,3.70
2018-11-28T10:06:45.741Z,3.70
2018-11-28T10:09:17.199Z,3.80
2018-11-28T10:11:48.863Z,3.80
2018-11-28T10:14:20.436Z,3.80
2018-11-28T10:16:52.590Z,3.80
2018-11-28T10:19:23.723Z,3.90
2018-11-28T10:21:55.456Z,4.00
2018-11-28T10:24:27.015Z,3.90
2018-11-28T10:26:58.596Z,3.90
2018-11-28T10:29:30.054Z,4.00
2018-11-28T10:32:01.655Z,4.10
2018-11-28T10:34:33.155Z,4.20
2018-11-28T10:37:04.759Z,4.10
2018-11-28T10:39:36.272Z,4.20
2018-11-28T10:42:08.119Z,4.30
2018-11-28T10:44:39.667Z,4.50
2018-11-28T10:47:11.334Z,4.50
2018-11-28T10:49:42.801Z,4.60
2018-11-28T10:52:14.427Z,4.60
2018-11-28T10:54:46.018Z,4.60
2018-11-28T10:57:17.647Z,4.60
2018-11-28T10:59:49.192Z,4.70
2018-11-28T11:02:25.578Z,4.70
2018-11-28T11:05:02.015Z,4.70
2018-11-28T11:07:38.555Z,4.70
2018-11-28T11:10:15.100Z,4.70
2018-11-28T11:12:51.723Z,4.80
2018-11-28T11:15:23.458Z,4.80
2018-11-28T11:17:54.982Z,4.90
2018-11-28T11:20:26.720Z,4.80
2018-11-28T11:22:58.213Z,4.90
2018-11-28T11:25:29.822Z,5.00
2018-11-28T11:28:01.470Z,5.10
2018-11-28T11:30:33.142Z,5.20
2018-11-28T11:33:04.774Z,5.20
2018-11-28T11:35:36.368Z,5.10
2018-11-28T11:38:08.041Z,5.00
2018-11-28T11:40:39.714Z,5.00
2018-11-28T11:43:11.543Z,5.00
2018-11-28T11:45:43.112Z,4.90
2018-11-28T11:48:14.748Z,4.80
2018-11-28T11:50:46.334Z,4.90
2018-11-28T11:53:17.949Z,5.60
2018-11-28T11:55:49.510Z,6.50
2018-11-28T11:58:21.156Z,6.70
2018-11-28T12:00:52.858Z,7.40
2018-11-28T12:03:24.473Z,7.30
2018-11-28T12:05:58.666Z,6.80
2018-11-28T12:08:31.092Z,6.80
2018-11-28T12:11:02.811Z,7.20
2018-11-28T12:13:34.374Z,7.60
2018-11-28T12:16:06.040Z,7.90
2018-11-28T12:18:37.711Z,7.40
2018-11-28T12:21:09.619Z,6.70
2018-11-28T12:23:41.196Z,6.20
2018-11-28T12:26:12.810Z,6.10
2018-11-28T12:28:44.314Z,6.40
2018-11-28T12:31:15.750Z,6.70
2018-11-28T12:33:47.425Z,6.20
2018-11-28T12:36:19.046Z,6.00
2018-11-28T12:38:50.563Z,5.90
2018-11-28T12:41:22.324Z,5.80
2018-11-28T12:43:53.856Z,5.70
2018-11-28T12:46:25.229Z,5.90
2018-11-28T12:48:56.755Z,6.20
2018-11-28T12:51:28.415Z,6.40
2018-11-28T12:54:00.047Z,6.70
2018-11-28T12:56:31.476Z,6.90
2018-11-28T12:59:03.064Z,7.40
2018-11-28T13:01:34.534Z,7.60
2018-11-28T13:04:06.854Z,7.90
2018-11-28T13:06:38.331Z,7.60
2018-11-28T13:09:10.091Z,7.20
2018-11-28T13:11:41.535Z,6.60
2018-11-28T13:14:12.967Z,6.20
2018-11-28T13:16:44.556Z,5.80
2018-11-28T13:19:15.979Z,5.60
2018-11-28T13:21:47.564Z,5.10
2018-11-28T13:24:19.123Z,4.90
2018-11-28T13:26:50.817Z,4.70
2018-11-28T13:29:22.395Z,4.80
2018-11-28T13:31:53.919Z,5.10
2018-11-28T13:34:25.439Z,5.30
2018-11-28T13:36:57.121Z,5.30
2018-11-28T13:39:28.626Z,5.40
2018-11-28T13:42:00.239Z,5.50
2018-11-28T13:44:31.747Z,5.50
2018-11-28T13:47:03.344Z,5.60
2018-11-28T13:49:34.869Z,5.40
2018-11-28T13:52:06.549Z,5.00
2018-11-28T13:55:36.845Z,4.60
2018-11-28T13:57:10.273Z,4.40
2018-11-28T13:59:41.500Z,4.20
2018-11-28T14:02:13.003Z,4.00
2018-11-28T14:04:44.584Z,3.80
2018-11-28T14:07:16.110Z,3.80
2018-11-28T14:09:47.599Z,3.80
2018-11-28T14:12:19.031Z,3.80
2018-11-28T14:14:50.701Z,3.70
2018-11-28T14:17:22.164Z,3.70
2018-11-28T14:19:53.803Z,3.60
2018-11-28T14:22:25.271Z,3.50
2018-11-28T14:24:56.957Z,3.40
2018-11-28T14:27:28.475Z,3.30
2018-11-28T14:30:00.272Z,3.20
2018-11-28T14:32:31.785Z,3.10
2018-11-28T14:35:03.322Z,3.10
2018-11-28T14:37:34.863Z,3.10
2018-11-28T14:40:10.429Z,3.00
2018-11-28T14:42:42.003Z,3.00
2018-11-28T14:45:16.185Z,2.90
2018-11-28T14:47:48.375Z,2.80
2018-11-28T14:50:24.337Z,2.80
2018-11-28T14:52:57.336Z,2.70
2018-11-28T14:55:33.532Z,2.60
2018-11-28T14:58:05.315Z,2.50
2018-11-28T15:00:36.827Z,2.40
2018-11-28T15:03:12.991Z,2.40
2018-11-28T15:06:28.231Z,2.30
2018-11-28T15:09:04.939Z,2.30
2018-11-28T15:11:36.632Z,2.20
2018-11-28T15:14:08.130Z,2.20
2018-11-28T15:16:39.818Z,2.20
2018-11-28T15:19:11.350Z,2.20
2018-11-28T15:21:42.979Z,2.20
2018-11-28T15:24:14.463Z,2.20
2018-11-28T15:26:46.171Z,2.10
2018-11-28T15:29:17.643Z,2.10
2018-11-28T15:31:49.304Z,2.00
2018-11-28T15:34:20.733Z,1.90
2018-11-28T15:36:52.297Z,1.80
2018-11-28T15:39:23.936Z,1.80
2018-11-28T15:41:55.525Z,1.80
2018-11-28T15:44:27.099Z,1.80
2018-11-28T15:46:58.728Z,1.80
2018-11-28T15:49:30.257Z,1.80
2018-11-28T15:52:01.927Z,1.80
2018-11-28T15:54:33.640Z,1.80
2018-11-28T15:57:05.165Z,1.70
2018-11-28T15:59:36.800Z,1.60
2018-11-28T16:02:08.830Z,1.50
2018-11-28T16:04:40.298Z,1.40
2018-11-28T16:07:11.908Z,1.40
2018-11-28T16:09:48.385Z,1.30
2018-11-28T16:12:19.988Z,1.20
2018-11-28T16:14:51.459Z,1.10
2018-11-28T16:17:23.102Z,1.00
2018-11-28T16:19:54.587Z,1.00
2018-11-28T16:22:26.310Z,0.90
2018-11-28T16:24:57.752Z,0.80
2018-11-28T16:27:29.402Z,0.70
2018-11-28T16:30:00.892Z,0.70
2018-11-28T16:32:32.584Z,0.70
2018-11-28T16:35:04.198Z,0.60
2018-11-28T16:37:35.886Z,0.60
2018-11-28T16:40:11.223Z,0.60
2018-11-28T16:42:42.972Z,0.60
2018-11-28T16:45:19.671Z,0.60
2018-11-28T16:47:51.534Z,0.60
2018-11-28T16:50:23.015Z,0.60
2018-11-28T16:52:54.584Z,0.60
2018-11-28T16:55:26.067Z,0.60
2018-11-28T16:57:57.913Z,0.60
2018-11-28T17:00:31.304Z,0.60
2018-11-28T17:03:02.848Z,0.60
2018-11-28T17:05:34.483Z,0.60
2018-11-28T17:08:08.278Z,0.60
2018-11-28T17:10:39.877Z,0.60
2018-11-28T17:13:11.331Z,0.60
2018-11-28T17:15:43.023Z,0.50
2018-11-28T17:18:14.576Z,0.50
2018-11-28T17:20:46.336Z,0.50
2018-11-28T17:23:17.848Z,0.50
2018-11-28T17:25:49.438Z,0.50
2018-11-28T17:28:20.960Z,0.50
2018-11-28T17:30:52.656Z,0.50
2018-11-28T17:33:24.175Z,0.50
2018-11-28T17:35:55.697Z,0.50
2018-11-28T17:38:27.259Z,0.50
2018-11-28T17:40:58.705Z,0.50
2018-11-28T17:43:30.267Z,0.40
2018-11-28T17:46:01.921Z,0.40
2018-11-28T17:48:33.484Z,0.40
2018-11-28T17:51:04.903Z,0.40
2018-11-28T17:53:36.599Z,0.40
2018-11-28T17:56:08.263Z,0.40
2018-11-28T17:58:39.924Z,0.40
2018-11-28T18:01:11.550Z,0.40
2018-11-28T18:03:43.239Z,0.40
2018-11-28T18:06:14.811Z,0.40
2018-11-28T18:08:46.467Z,0.40
2018-11-28T18:11:18.179Z,0.40
2018-11-28T18:13:49.748Z,0.50
2018-11-28T18:16:21.308Z,0.50
2018-11-28T18:18:52.955Z,0.50
2018-11-28T18:21:24.448Z,0.50
2018-11-28T18:23:56.216Z,0.50
2018-11-28T18:26:29.219Z,0.50
2018-11-28T18:29:00.883Z,0.50
2018-11-28T18:31:32.379Z,0.50
2018-11-28T18:34:04.135Z,0.40
2018-11-28T18:36:35.664Z,0.40
2018-11-28T18:39:09.527Z,0.40
2018-11-28T18:41:41.239Z,0.40
2018-11-28T18:44:12.914Z,0.30
2018-11-28T18:46:44.556Z,0.30
2018-11-28T18:49:16.035Z,0.30
2018-11-28T18:51:47.685Z,0.30
2018-11-28T18:54:19.359Z,0.30
2018-11-28T18:56:50.875Z,0.30
2018-11-28T18:59:22.571Z,0.20
2018-11-28T19:01:54.303Z,0.20
2018-11-28T19:04:25.933Z,0.20
2018-11-28T19:06:57.371Z,0.20
2018-11-28T19:09:33.944Z,0.20
2018-11-28T19:12:05.649Z,0.30
2018-11-28T19:14:37.238Z,0.30
2018-11-28T19:17:08.938Z,0.30
2018-11-28T19:19:40.395Z,0.30
2018-11-28T19:22:12.196Z,0.30
2018-11-28T19:24:43.703Z,0.30
2018-11-28T19:27:15.365Z,0.40
2018-11-28T19:29:47.000Z,0.40
2018-11-28T19:32:18.432Z,0.40
2018-11-28T19:34:50.016Z,0.40
2018-11-28T19:37:21.643Z,0.40
2018-11-28T19:39:53.222Z,0.50
2018-11-28T19:42:24.801Z,0.50
2018-11-28T19:44:56.424Z,0.50
2018-11-28T19:47:28.135Z,0.50
2018-11-28T19:49:59.743Z,0.50
2018-11-28T19:52:31.351Z,0.60
2018-11-28T19:55:02.867Z,0.60
2018-11-28T19:57:34.559Z,0.60
2018-11-28T20:00:10.507Z,0.60
2018-11-28T20:02:42.250Z,0.60
2018-11-28T20:05:14.027Z,0.60
2018-11-28T20:07:48.115Z,0.70
2018-11-28T20:10:23.208Z,0.70
2018-11-28T20:12:54.752Z,0.60
2018-11-28T20:15:28.027Z,0.60
2018-11-28T20:17:59.715Z,0.50
2018-11-28T20:20:31.327Z,0.50
2018-11-28T20:23:02.779Z,0.40
2018-11-28T20:25:34.408Z,0.40
2018-11-28T20:28:06.109Z,0.40
2018-11-28T20:30:42.363Z,0.30
2018-11-28T20:33:15.063Z,0.30
2018-11-28T20:35:48.207Z,0.30
2018-11-28T20:38:36.186Z,0.20
2018-11-28T20:41:07.970Z,0.20
2018-11-28T20:43:39.611Z,0.20
2018-11-28T20:46:11.354Z,0.30
2018-11-28T20:48:42.892Z,0.30
2018-11-28T20:51:14.521Z,0.30
2018-11-28T20:53:45.947Z,0.30
2018-11-28T20:56:17.521Z,0.30
2018-11-28T20:58:49.100Z,0.30
2018-11-28T21:01:20.700Z,0.30
2018-11-28T21:03:52.259Z,0.30
2018-11-28T21:06:23.856Z,0.30
2018-11-28T21:08:55.677Z,0.30
2018-11-28T21:11:27.203Z,0.30
2018-11-28T21:13:58.846Z,0.30
2018-11-28T21:16:30.485Z,0.30
2018-11-28T21:19:02.119Z,0.30
2018-11-28T21:21:33.591Z,0.30
2018-11-28T21:24:05.376Z,0.30
2018-11-28T21:26:37.165Z,0.30
2018-11-28T21:29:08.640Z,0.20
2018-11-28T21:31:40.352Z,0.20
2018-11-28T21:34:11.878Z,0.20
2018-11-28T21:36:43.692Z,0.20
2018-11-28T21:39:15.143Z,0.20
2018-11-28T21:41:46.724Z,0.30
2018-11-28T21:44:18.284Z,0.30
2018-11-28T21:46:49.975Z,0.20
2018-11-28T21:49:21.491Z,0.20
2018-11-28T21:51:52.910Z,0.20
2018-11-28T21:54:24.487Z,0.20
2018-11-28T21:56:55.970Z,0.10
2018-11-28T21:59:27.598Z,0.10
2018-11-28T22:01:59.083Z,0.10
2018-11-28T22:04:30.707Z,0.10
2018-11-28T22:07:02.140Z,0.10
2018-11-28T22:09:34.363Z,0.10
2018-11-28T22:12:06.127Z,0.20
2018-11-28T22:14:37.759Z,0.20
2018-11-28T22:17:09.311Z,0.20
2018-11-28T22:19:40.991Z,0.20
2018-11-28T22:22:12.517Z,0.20
2018-11-28T22:24:44.171Z,0.20
2018-11-28T22:27:15.746Z,0.20
2018-11-28T22:29:47.415Z,0.20
2018-11-28T22:32:18.915Z,0.20
2018-11-28T22:34:50.528Z,0.20
2018-11-28T22:37:22.004Z,0.20
2018-11-28T22:39:53.585Z,0.20
2018-11-28T22:42:25.066Z,0.10
2018-11-28T22:44:56.696Z,0.10
2018-11-28T22:47:28.387Z,0.10
2018-11-28T22:50:00.024Z,0.10
2018-11-28T22:52:31.673Z,0.10
2018-11-28T22:55:03.227Z,0.10
2018-11-28T22:57:34.650Z,0.10
2018-11-28T23:00:45.477Z,0.10
2018-11-28T23:03:17.094Z,0.20
2018-11-28T23:05:52.907Z,0.20
2018-11-28T23:08:24.599Z,0.20
2018-11-28T23:10:56.234Z,0.20
2018-11-28T23:13:27.940Z,0.20
2018-11-28T23:15:59.673Z,0.20
2018-11-28T23:18:31.108Z,0.20
2018-11-28T23:21:02.693Z,0.20
2018-11-28T23:23:34.156Z,0.10
2018-11-28T23:26:06.039Z,0.10
2018-11-28T23:28:37.523Z,0.10
2018-11-28T23:31:09.146Z,0.10
2018-11-28T23:33:40.815Z,0.10
2018-11-28T23:36:12.329Z,0.10
2018-11-28T23:38:44.015Z,0.00
2018-11-28T23:41:15.639Z,0.00
2018-11-28T23:43:47.291Z,0.00
2018-11-28T23:46:18.956Z,-0.10
2018-11-28T23:48:50.649Z,-0.10
2018-11-28T23:51:22.167Z,-0.10
2018-11-28T23:53:53.862Z,-0.10
2018-11-28T23:56:25.381Z,-0.10
2018-11-28T23:58:57.075Z,-0.10
